createdAt,value
2022-07-25T00:01:15.784Z,6.40
2022-07-25T00:03:37.669Z,5.67
2022-07-25T00:06:01.224Z,6.80
2022-07-25T00:08:23.290Z,6.90
2022-07-25T00:10:45.315Z,7.57
2022-07-25T00:13:07.351Z,6.30
2022-07-25T00:15:30.796Z,6.27
2022-07-25T00:17:52.916Z,7.93
2022-07-25T00:20:14.982Z,6.77
2022-07-25T00:22:37.367Z,7.67
2022-07-25T00:24:59.768Z,8.90
2022-07-25T00:27:22.137Z,6.70
2022-07-25T00:29:44.239Z,7.40
2022-07-25T00:32:07.959Z,8.03
2022-07-25T00:34:29.910Z,7.73
2022-07-25T00:36:51.627Z,7.53
2022-07-25T00:39:13.543Z,8.60
2022-07-25T00:41:35.306Z,8.30
2022-07-25T00:43:57.014Z,8.63
2022-07-25T00:46:19.455Z,8.27
2022-07-25T00:48:44.803Z,8.33
2022-07-25T00:51:07.463Z,8.30
2022-07-25T00:53:29.696Z,9.20
2022-07-25T00:55:53.089Z,10.10
2022-07-25T00:58:15.770Z,10.70
2022-07-25T01:00:37.595Z,11.83
2022-07-25T01:02:59.591Z,11.23
2022-07-25T01:05:22.844Z,10.30
2022-07-25T01:07:44.823Z,10.67
2022-07-25T01:10:07.936Z,11.53
2022-07-25T01:12:29.997Z,12.50
2022-07-25T01:14:51.728Z,11.17
2022-07-25T01:17:14.218Z,13.07
2022-07-25T01:19:36.102Z,12.27
2022-07-25T01:21:59.386Z,11.67
2022-07-25T01:24:21.279Z,11.17
2022-07-25T01:26:43.282Z,12.47
2022-07-25T01:29:06.238Z,12.70
2022-07-25T01:31:28.428Z,11.90
2022-07-25T01:33:50.806Z,10.07
2022-07-25T01:36:13.224Z,10.43
2022-07-25T01:38:36.814Z,11.23
2022-07-25T01:40:58.568Z,11.60
2022-07-25T01:43:20.800Z,11.60
2022-07-25T01:45:42.978Z,11.03
2022-07-25T01:48:05.350Z,10.50
2022-07-25T01:50:27.536Z,11.77
2022-07-25T01:52:49.656Z,11.10
2022-07-25T01:55:13.187Z,11.27
2022-07-25T01:57:36.269Z,10.73
2022-07-25T01:59:58.063Z,12.37
2022-07-25T02:02:19.921Z,10.73
2022-07-25T02:04:41.852Z,10.93
2022-07-25T02:07:04.315Z,10.87
2022-07-25T02:09:28.933Z,11.47
2022-07-25T02:11:52.236Z,11.77
2022-07-25T02:14:16.119Z,11.53
2022-07-25T02:16:38.064Z,11.80
2022-07-25T02:18:59.884Z,11.57
2022-07-25T02:21:21.812Z,12.27
2022-07-25T02:23:44.280Z,13.23
2022-07-25T02:26:06.417Z,12.77
2022-07-25T02:28:29.956Z,12.50
2022-07-25T02:30:52.349Z,13.20
2022-07-25T02:33:14.032Z,12.60
2022-07-25T02:35:35.994Z,12.07
2022-07-25T02:37:58.400Z,12.20
2022-07-25T02:40:20.594Z,11.10
2022-07-25T02:42:42.841Z,11.73
2022-07-25T02:45:07.781Z,12.17
2022-07-25T02:47:30.080Z,12.17
2022-07-25T02:49:51.974Z,11.03
2022-07-25T02:52:13.838Z,11.10
2022-07-25T02:54:35.778Z,10.40
2022-07-25T02:56:57.624Z,11.67
2022-07-25T02:59:19.499Z,11.47
2022-07-25T03:01:42.638Z,11.23
2022-07-25T03:04:04.739Z,13.23
2022-07-25T03:06:26.791Z,12.40
2022-07-25T03:08:48.746Z,11.67
2022-07-25T03:11:10.642Z,11.20
2022-07-25T03:13:33.026Z,13.87
2022-07-25T03:15:55.157Z,13.10
2022-07-25T03:18:18.415Z,15.00
2022-07-25T03:20:40.342Z,14.27
2022-07-25T03:23:02.166Z,13.63
2022-07-25T03:25:24.041Z,14.13
2022-07-25T03:27:46.166Z,12.60
2022-07-25T03:30:09.897Z,13.13
2022-07-25T03:32:31.821Z,13.97
2022-07-25T03:34:55.161Z,12.00
2022-07-25T03:37:16.901Z,13.20
2022-07-25T03:39:39.529Z,12.67
2022-07-25T03:42:01.482Z,12.23
2022-07-25T03:44:24.674Z,14.00
2022-07-25T03:46:46.558Z,14.10
2022-07-25T03:49:08.707Z,13.70
2022-07-25T03:51:32.554Z,12.80
2022-07-25T03:54:03.956Z,13.57
2022-07-25T03:56:26.298Z,13.73
2022-07-25T03:58:48.299Z,13.37
2022-07-25T04:01:10.739Z,13.60
2022-07-25T04:03:33.014Z,12.47
2022-07-25T04:05:54.972Z,13.07
2022-07-25T04:08:18.627Z,11.43
2022-07-25T04:10:40.407Z,11.97
2022-07-25T04:13:03.705Z,11.97
2022-07-25T04:15:25.718Z,11.77
2022-07-25T04:17:47.605Z,12.73
2022-07-25T04:20:10.444Z,12.60
2022-07-25T04:22:32.604Z,11.17
2022-07-25T04:24:55.945Z,13.03
2022-07-25T04:27:18.002Z,12.07
2022-07-25T04:29:39.967Z,12.27
2022-07-25T04:32:01.860Z,11.33
2022-07-25T04:34:23.596Z,10.63
2022-07-25T04:36:45.694Z,10.00
2022-07-25T04:39:07.504Z,11.23
2022-07-25T04:41:30.792Z,10.47
2022-07-25T04:43:52.742Z,10.00
2022-07-25T04:46:19.772Z,10.20
2022-07-25T04:48:41.875Z,9.97
2022-07-25T04:51:08.238Z,9.07
2022-07-25T04:53:30.747Z,10.47
2022-07-25T04:55:52.641Z,11.03
2022-07-25T04:58:16.016Z,10.93
2022-07-25T05:00:38.306Z,11.07
2022-07-25T05:03:00.338Z,9.97
2022-07-25T05:05:22.554Z,9.60
2022-07-25T05:07:44.666Z,9.77
2022-07-25T05:10:07.464Z,9.13
2022-07-25T05:12:47.690Z,10.20
2022-07-25T05:15:12.219Z,9.73
2022-07-25T05:17:34.341Z,9.07
2022-07-25T05:19:56.318Z,9.37
2022-07-25T05:22:18.515Z,12.57
2022-07-25T05:24:40.251Z,9.57
2022-07-25T05:27:02.281Z,9.63
2022-07-25T05:29:24.222Z,10.63
2022-07-25T05:31:47.866Z,10.23
2022-07-25T05:34:10.117Z,9.13
2022-07-25T05:36:32.263Z,10.53
2022-07-25T05:38:54.078Z,10.70
2022-07-25T05:41:16.405Z,10.80
2022-07-25T05:43:38.207Z,10.20
2022-07-25T05:46:04.267Z,10.60
2022-07-25T05:48:27.739Z,9.97
2022-07-25T05:50:49.851Z,10.60
2022-07-25T05:53:12.212Z,10.80
2022-07-25T05:55:34.568Z,10.03
2022-07-25T05:57:56.723Z,10.53
2022-07-25T06:00:19.155Z,10.73
2022-07-25T06:02:41.367Z,9.93
2022-07-25T06:05:05.221Z,9.77
2022-07-25T06:07:27.423Z,10.43
2022-07-25T06:09:49.323Z,11.17
2022-07-25T06:12:11.530Z,12.97
2022-07-25T06:14:33.748Z,11.30
2022-07-25T06:16:56.024Z,10.80
2022-07-25T06:19:17.855Z,10.93
2022-07-25T06:21:40.969Z,9.53
2022-07-25T06:24:02.858Z,9.97
2022-07-25T06:26:25.146Z,8.97
2022-07-25T06:28:47.139Z,9.73
2022-07-25T06:31:09.318Z,10.17
2022-07-25T06:33:31.350Z,10.43
2022-07-25T06:35:53.489Z,8.77
2022-07-25T06:38:16.748Z,9.50
2022-07-25T06:40:38.595Z,8.43
2022-07-25T06:43:00.567Z,9.67
2022-07-25T06:45:24.135Z,8.77
2022-07-25T06:47:47.066Z,9.17
2022-07-25T06:50:11.952Z,11.17
2022-07-25T06:52:34.098Z,11.00
2022-07-25T06:54:57.471Z,9.30
2022-07-25T06:57:19.620Z,8.37
2022-07-25T06:59:41.552Z,8.47
2022-07-25T07:02:03.426Z,8.93
2022-07-25T07:04:25.303Z,8.13
2022-07-25T07:06:47.291Z,8.00
2022-07-25T07:09:09.316Z,8.67
2022-07-25T07:11:34.281Z,7.40
2022-07-25T07:13:56.601Z,8.10
2022-07-25T07:16:18.719Z,8.73
2022-07-25T07:18:43.596Z,8.43
2022-07-25T07:21:08.186Z,8.73
2022-07-25T07:23:30.308Z,8.57
2022-07-25T07:25:55.033Z,8.57
2022-07-25T07:28:18.230Z,8.70
2022-07-25T07:31:13.590Z,9.60
2022-07-25T07:33:23.827Z,8.20
2022-07-25T07:35:46.128Z,7.83
2022-07-25T07:38:09.107Z,8.03
2022-07-25T07:40:31.533Z,8.20
2022-07-25T07:42:54.055Z,7.77
2022-07-25T07:45:20.592Z,7.00
2022-07-25T07:47:42.881Z,7.40
2022-07-25T07:50:05.402Z,7.17
2022-07-25T07:52:27.275Z,7.97
2022-07-25T07:55:06.518Z,7.73
2022-07-25T07:57:28.430Z,6.80
2022-07-25T07:59:50.223Z,6.47
2022-07-25T08:02:14.164Z,6.30
2022-07-25T08:04:36.285Z,6.07
2022-07-25T08:06:58.155Z,6.87
2022-07-25T08:09:20.313Z,6.50
2022-07-25T08:11:42.075Z,7.07
2022-07-25T08:14:05.456Z,7.53
2022-07-25T08:16:27.346Z,5.87
2022-07-25T08:18:50.545Z,6.23
2022-07-25T08:21:12.562Z,6.87
2022-07-25T08:23:35.397Z,13.97
2022-07-25T08:25:58.044Z,7.93
2022-07-25T08:28:21.162Z,7.43
2022-07-25T08:30:43.374Z,8.73
2022-07-25T08:33:07.939Z,7.73
2022-07-25T08:35:32.518Z,8.97
2022-07-25T08:37:55.794Z,7.70
2022-07-25T08:40:20.511Z,8.57
2022-07-25T08:42:43.032Z,8.30
2022-07-25T08:45:07.635Z,7.57
2022-07-25T08:47:30.413Z,8.40
2022-07-25T08:49:52.783Z,8.70
2022-07-25T08:52:16.681Z,9.13
2022-07-25T08:54:39.235Z,9.33
2022-07-25T08:57:01.379Z,9.03
2022-07-25T08:59:23.295Z,9.33
2022-07-25T09:01:45.211Z,9.03
2022-07-25T09:04:10.096Z,9.47
2022-07-25T09:06:32.176Z,9.93
2022-07-25T09:09:00.932Z,9.20
2022-07-25T09:11:35.075Z,9.90
2022-07-25T09:14:05.974Z,10.10
2022-07-25T09:16:33.803Z,9.83
2022-07-25T09:19:06.232Z,9.63
2022-07-25T09:21:28.217Z,9.77
2022-07-25T09:23:50.301Z,11.27
2022-07-25T09:26:14.758Z,10.37
2022-07-25T09:28:42.599Z,10.03
2022-07-25T09:31:04.915Z,10.03
2022-07-25T09:33:28.415Z,11.60
2022-07-25T09:35:50.442Z,10.50
2022-07-25T09:38:14.201Z,10.40
2022-07-25T09:40:36.077Z,11.80
2022-07-25T09:42:59.318Z,10.53
2022-07-25T09:45:21.086Z,9.47
2022-07-25T09:47:54.731Z,9.60
2022-07-25T09:50:17.518Z,10.23
2022-07-25T09:52:40.307Z,11.57
2022-07-25T09:55:05.099Z,9.67
2022-07-25T09:57:28.724Z,10.37
2022-07-25T09:59:52.106Z,9.20
2022-07-25T10:02:27.289Z,10.87
2022-07-25T10:04:57.612Z,10.27
2022-07-25T10:07:24.270Z,9.97
2022-07-25T10:09:50.626Z,9.17
2022-07-25T10:12:15.518Z,9.37
2022-07-25T10:14:38.639Z,8.50
2022-07-25T10:17:02.925Z,7.60
2022-07-25T10:19:45.900Z,6.80
2022-07-25T10:22:12.175Z,7.37
2022-07-25T10:24:35.182Z,4.77
2022-07-25T10:26:57.071Z,5.97
2022-07-25T10:29:19.470Z,7.47
2022-07-25T10:31:50.400Z,5.33
2022-07-25T10:34:15.336Z,5.97
2022-07-25T10:36:45.995Z,5.47
2022-07-25T10:39:10.653Z,6.03
2022-07-25T10:41:32.817Z,5.63
2022-07-25T10:44:00.426Z,4.97
2022-07-25T10:46:23.428Z,4.40
2022-07-25T10:48:45.714Z,4.93
2022-07-25T10:51:10.874Z,5.27
2022-07-25T10:53:34.734Z,5.00
2022-07-25T10:56:06.174Z,4.83
2022-07-25T10:58:28.422Z,4.67
2022-07-25T11:00:51.171Z,4.63
2022-07-25T11:03:18.097Z,5.30
2022-07-25T11:05:47.784Z,5.63
2022-07-25T11:08:21.565Z,5.53
2022-07-25T11:10:52.082Z,6.27
2022-07-25T11:13:15.842Z,9.70
2022-07-25T11:15:38.097Z,5.63
2022-07-25T11:18:00.122Z,7.13
2022-07-25T11:20:22.426Z,6.20
2022-07-25T11:22:44.242Z,6.73
2022-07-25T11:25:14.174Z,5.30
2022-07-25T11:27:35.966Z,7.77
2022-07-25T11:30:08.027Z,5.23
2022-07-25T11:32:39.887Z,4.13
2022-07-25T11:35:02.121Z,4.07
2022-07-25T11:37:24.500Z,2.70
2022-07-25T11:39:48.720Z,2.77
2022-07-25T11:42:16.139Z,1.87
2022-07-25T11:44:42.981Z,1.77
2022-07-25T11:47:22.614Z,2.37
2022-07-25T11:49:45.524Z,2.17
2022-07-25T11:52:07.737Z,1.40
2022-07-25T11:54:29.686Z,1.50
2022-07-25T11:56:51.386Z,2.20
2022-07-25T11:59:15.087Z,4.20
2022-07-25T12:01:38.492Z,1.10
2022-07-25T12:04:09.928Z,1.37
2022-07-25T12:06:31.828Z,2.67
2022-07-25T12:08:53.994Z,2.80
2022-07-25T12:11:20.877Z,2.37
2022-07-25T12:13:42.657Z,3.90
2022-07-25T12:16:06.678Z,5.77
2022-07-25T12:18:29.186Z,1.13
2022-07-25T12:20:52.939Z,2.27
2022-07-25T12:23:15.732Z,1.10
2022-07-25T12:25:40.078Z,4.97
2022-07-25T12:28:02.454Z,3.70
2022-07-25T12:30:24.481Z,3.73
2022-07-25T12:32:47.663Z,1.53
2022-07-25T12:35:11.639Z,1.83
2022-07-25T12:37:33.927Z,0.80
2022-07-25T12:39:56.099Z,1.60
2022-07-25T12:42:18.191Z,2.27
2022-07-25T12:44:40.079Z,2.57
2022-07-25T12:47:02.733Z,5.80
2022-07-25T12:49:26.225Z,2.93
2022-07-25T12:51:48.019Z,2.73
2022-07-25T12:54:10.302Z,5.13
2022-07-25T12:56:33.078Z,2.77
2022-07-25T12:58:55.766Z,2.57
2022-07-25T13:01:17.918Z,4.10
2022-07-25T13:03:39.791Z,2.00
2022-07-25T13:06:02.881Z,2.60
2022-07-25T13:08:24.739Z,4.90
2022-07-25T13:10:46.548Z,13.27
2022-07-25T13:13:08.325Z,2.47
2022-07-25T13:15:30.366Z,2.57
2022-07-25T13:17:52.551Z,3.83
2022-07-25T13:20:15.606Z,3.70
2022-07-25T13:22:38.977Z,3.07
2022-07-25T13:25:01.016Z,2.27
2022-07-25T13:27:23.806Z,6.07
2022-07-25T13:29:45.931Z,3.83
2022-07-25T13:32:07.894Z,4.83
2022-07-25T13:34:29.630Z,5.53
2022-07-25T13:36:51.453Z,1.60
2022-07-25T13:39:14.843Z,4.03
2022-07-25T13:41:37.056Z,2.27
2022-07-25T13:43:59.218Z,2.53
2022-07-25T13:46:21.456Z,5.27
2022-07-25T13:48:43.321Z,3.47
2022-07-25T13:51:05.411Z,1.43
2022-07-25T13:53:30.236Z,6.30
2022-07-25T13:55:54.091Z,2.43
2022-07-25T13:58:16.294Z,2.83
2022-07-25T14:00:38.582Z,2.57
2022-07-25T14:03:01.483Z,4.63
2022-07-25T14:05:24.224Z,1.43
2022-07-25T14:07:46.896Z,1.63
2022-07-25T14:10:09.295Z,2.63
2022-07-25T14:12:32.456Z,2.27
2022-07-25T14:14:54.366Z,2.03
2022-07-25T14:17:16.994Z,2.70
2022-07-25T14:19:39.247Z,3.43
2022-07-25T14:22:01.317Z,1.87
2022-07-25T14:24:23.249Z,1.77
2022-07-25T14:26:45.211Z,1.50
2022-07-25T14:29:11.143Z,4.00
2022-07-25T14:31:33.150Z,3.13
2022-07-25T14:33:55.030Z,2.70
2022-07-25T14:36:17.069Z,1.53
2022-07-25T14:38:40.311Z,3.97
2022-07-25T14:41:02.440Z,4.13
2022-07-25T14:43:24.255Z,2.67
2022-07-25T14:45:47.792Z,4.90
2022-07-25T14:48:09.518Z,5.63
2022-07-25T14:50:31.373Z,2.00
2022-07-25T14:52:53.249Z,4.83
2022-07-25T14:55:15.246Z,4.53
2022-07-25T14:57:37.367Z,4.67
2022-07-25T15:00:01.801Z,2.53
2022-07-25T15:02:25.072Z,5.10
2022-07-25T15:04:47.139Z,3.27
2022-07-25T15:07:09.124Z,2.93
2022-07-25T15:09:31.072Z,5.37
2022-07-25T15:11:52.839Z,2.43
2022-07-25T15:14:14.738Z,3.30
2022-07-25T15:16:36.895Z,1.87
2022-07-25T15:19:15.686Z,2.00
2022-07-25T15:21:38.903Z,2.50
2022-07-25T15:24:00.986Z,2.60
2022-07-25T15:26:23.261Z,2.40
2022-07-25T15:28:45.314Z,2.87
2022-07-25T15:31:08.034Z,2.70
2022-07-25T15:33:30.065Z,4.33
2022-07-25T15:35:53.359Z,3.33
2022-07-25T15:38:16.702Z,5.93
2022-07-25T15:40:38.584Z,5.47
2022-07-25T15:43:00.588Z,4.50
2022-07-25T15:45:33.088Z,8.13
2022-07-25T15:47:56.527Z,5.30
2022-07-25T15:50:18.408Z,4.70
2022-07-25T15:52:41.715Z,5.60
2022-07-25T15:55:03.915Z,4.57
2022-07-25T15:57:25.991Z,5.80
2022-07-25T15:59:47.897Z,6.97
2022-07-25T16:02:13.041Z,3.90
2022-07-25T16:04:35.212Z,4.17
2022-07-25T16:06:57.805Z,6.13
2022-07-25T16:09:21.328Z,7.07
2022-07-25T16:11:43.306Z,4.50
2022-07-25T16:14:05.363Z,4.60
2022-07-25T16:16:27.265Z,5.83
2022-07-25T16:18:49.635Z,3.30
2022-07-25T16:21:11.501Z,3.27
2022-07-25T16:23:38.390Z,3.93
2022-07-25T16:26:04.203Z,5.83
2022-07-25T16:28:26.302Z,4.27
2022-07-25T16:30:48.076Z,4.90
2022-07-25T16:33:10.063Z,5.20
2022-07-25T16:35:32.567Z,5.23
2022-07-25T16:37:54.328Z,7.63
2022-07-25T16:40:16.425Z,11.53
2022-07-25T16:42:39.802Z,7.10
2022-07-25T16:45:01.843Z,3.20
2022-07-25T16:47:24.046Z,6.37
2022-07-25T16:49:45.852Z,4.80
2022-07-25T16:52:07.935Z,5.93
2022-07-25T16:54:29.959Z,5.57
2022-07-25T16:56:54.256Z,4.53
2022-07-25T16:59:19.820Z,10.13
2022-07-25T17:01:41.901Z,5.90
2022-07-25T17:04:05.265Z,7.43
2022-07-25T17:06:27.106Z,6.93
2022-07-25T17:08:48.972Z,5.17
2022-07-25T17:11:11.357Z,6.33
2022-07-25T17:13:33.188Z,5.87
2022-07-25T17:15:56.549Z,5.13
2022-07-25T17:18:18.698Z,6.30
2022-07-25T17:20:40.618Z,6.23
2022-07-25T17:23:02.506Z,7.33
2022-07-25T17:25:24.381Z,5.27
2022-07-25T17:27:46.261Z,8.13
2022-07-25T17:30:08.953Z,8.73
2022-07-25T17:32:32.129Z,6.10
2022-07-25T17:34:54.275Z,5.17
2022-07-25T17:37:16.205Z,5.53
2022-07-25T17:39:38.644Z,6.63
2022-07-25T17:42:01.042Z,5.33
2022-07-25T17:44:22.806Z,4.13
2022-07-25T17:46:45.024Z,9.47
2022-07-25T17:49:08.678Z,2.63
2022-07-25T17:51:30.525Z,2.13
2022-07-25T17:53:52.637Z,20.43
2022-07-25T17:56:14.566Z,4.37
2022-07-25T17:58:37.198Z,2.97
2022-07-25T18:01:01.411Z,3.50
2022-07-25T18:03:25.450Z,2.87
2022-07-25T18:05:48.621Z,6.10
2022-07-25T18:08:10.986Z,3.87
2022-07-25T18:10:33.223Z,5.87
2022-07-25T18:12:55.682Z,4.67
2022-07-25T18:15:18.086Z,3.87
2022-07-25T18:17:41.822Z,5.27
2022-07-25T18:20:04.556Z,6.70
2022-07-25T18:22:27.718Z,4.73
2022-07-25T18:24:49.506Z,4.43
2022-07-25T18:27:11.359Z,3.23
2022-07-25T18:29:37.067Z,4.33
2022-07-25T18:31:59.470Z,5.40
2022-07-25T18:34:21.561Z,4.00
2022-07-25T18:36:43.862Z,4.80
2022-07-25T18:39:07.317Z,2.53
2022-07-25T18:41:30.237Z,4.37
2022-07-25T18:43:53.843Z,6.37
2022-07-25T18:46:16.742Z,6.53
2022-07-25T18:48:38.718Z,4.67
2022-07-25T18:51:00.622Z,4.80
2022-07-25T18:53:22.712Z,4.87
2022-07-25T18:55:45.973Z,7.63
2022-07-25T18:58:08.927Z,5.47
2022-07-25T19:00:30.741Z,4.47
2022-07-25T19:02:54.658Z,4.57
2022-07-25T19:05:19.891Z,6.40
2022-07-25T19:07:42.327Z,4.17
2022-07-25T19:10:04.911Z,7.00
2022-07-25T19:12:28.460Z,3.83
2022-07-25T19:14:50.316Z,7.33
2022-07-25T19:17:12.243Z,5.30
2022-07-25T19:19:34.924Z,5.27
2022-07-25T19:21:57.286Z,4.90
2022-07-25T19:24:19.634Z,5.77
2022-07-25T19:26:41.759Z,7.80
2022-07-25T19:29:06.526Z,5.23
2022-07-25T19:31:28.429Z,4.47
2022-07-25T19:33:50.537Z,6.23
2022-07-25T19:36:12.811Z,6.50
2022-07-25T19:38:35.522Z,3.73
2022-07-25T19:40:57.770Z,6.10
2022-07-25T19:43:19.757Z,6.37
2022-07-25T19:45:43.119Z,4.63
2022-07-25T19:48:05.796Z,5.10
2022-07-25T19:50:28.120Z,4.63
2022-07-25T19:52:50.120Z,9.03
2022-07-25T19:55:12.041Z,4.70
2022-07-25T19:57:34.015Z,4.73
2022-07-25T19:59:55.932Z,4.57
2022-07-25T20:02:19.207Z,7.87
2022-07-25T20:04:41.384Z,4.10
2022-07-25T20:07:03.662Z,5.67
2022-07-25T20:09:25.528Z,5.70
2022-07-25T20:11:47.541Z,5.37
2022-07-25T20:14:10.855Z,7.63
2022-07-25T20:16:33.420Z,10.73
2022-07-25T20:18:56.463Z,6.47
2022-07-25T20:21:18.807Z,3.47
2022-07-25T20:23:40.911Z,6.43
2022-07-25T20:26:04.167Z,7.70
2022-07-25T20:28:26.444Z,5.07
2022-07-25T20:30:48.432Z,6.50
2022-07-25T20:33:10.824Z,4.17
2022-07-25T20:35:34.483Z,7.50
2022-07-25T20:37:56.342Z,6.07
2022-07-25T20:40:19.396Z,7.17
2022-07-25T20:42:42.962Z,6.77
2022-07-25T20:45:05.988Z,3.10
2022-07-25T20:47:28.081Z,5.47
2022-07-25T20:49:50.075Z,6.07
2022-07-25T20:52:13.305Z,7.03
2022-07-25T20:54:35.280Z,7.37
2022-07-25T20:56:57.386Z,8.23
2022-07-25T20:59:19.366Z,6.03
2022-07-25T21:01:41.720Z,7.17
2022-07-25T21:04:07.425Z,6.03
2022-07-25T21:06:29.672Z,8.57
2022-07-25T21:08:56.838Z,6.77
2022-07-25T21:11:18.788Z,6.83
2022-07-25T21:13:40.959Z,3.80
2022-07-25T21:16:03.395Z,5.87
2022-07-25T21:18:25.247Z,5.53
2022-07-25T21:20:47.362Z,6.33
2022-07-25T21:23:11.562Z,5.63
2022-07-25T21:25:34.823Z,8.87
2022-07-25T21:27:56.873Z,4.80
2022-07-25T21:30:18.958Z,11.27
2022-07-25T21:32:41.917Z,8.07
2022-07-25T21:35:05.446Z,7.53
2022-07-25T21:37:27.505Z,8.00
2022-07-25T21:39:49.287Z,6.13
2022-07-25T21:42:12.355Z,7.93
2022-07-25T21:44:34.215Z,9.23
2022-07-25T21:46:55.954Z,8.20
2022-07-25T21:49:41.868Z,10.70
2022-07-25T21:52:05.534Z,8.43
2022-07-25T21:54:28.168Z,8.30
2022-07-25T21:56:49.995Z,8.30
2022-07-25T21:59:13.269Z,11.93
2022-07-25T22:01:35.625Z,12.80
2022-07-25T22:03:57.789Z,10.70
2022-07-25T22:06:20.492Z,10.37
2022-07-25T22:08:42.390Z,11.83
2022-07-25T22:11:20.683Z,10.13
2022-07-25T22:13:46.400Z,8.97
2022-07-25T22:16:10.171Z,11.57
2022-07-25T22:18:32.315Z,11.53
2022-07-25T22:20:54.822Z,9.60
2022-07-25T22:23:16.813Z,10.37
2022-07-25T22:25:38.658Z,8.30
2022-07-25T22:28:00.492Z,10.53
2022-07-25T22:30:22.344Z,9.87
2022-07-25T22:32:45.511Z,10.30
2022-07-25T22:35:08.616Z,9.50
2022-07-25T22:37:32.783Z,11.33
2022-07-25T22:40:00.605Z,10.83
2022-07-25T22:42:23.380Z,13.33
2022-07-25T22:44:45.272Z,12.37
2022-07-25T22:47:07.384Z,10.23
2022-07-25T22:49:30.659Z,8.57
2022-07-25T22:51:55.616Z,11.83
2022-07-25T22:54:17.793Z,13.37
2022-07-25T22:56:39.941Z,6.57
2022-07-25T22:59:02.002Z,10.00
2022-07-25T23:01:24.420Z,13.90
2022-07-25T23:03:46.484Z,14.33
2022-07-25T23:06:10.266Z,11.07
2022-07-25T23:08:32.362Z,11.83
2022-07-25T23:10:54.256Z,11.17
2022-07-25T23:13:16.173Z,11.47
2022-07-25T23:15:49.386Z,9.57
2022-07-25T23:18:12.524Z,8.27
2022-07-25T23:20:34.431Z,15.07
2022-07-25T23:22:57.670Z,7.30
2022-07-25T23:25:19.477Z,10.00
2022-07-25T23:27:41.298Z,7.73
2022-07-25T23:30:04.284Z,10.63
2022-07-25T23:32:26.349Z,10.17
2022-07-25T23:34:48.443Z,12.07
2022-07-25T23:37:10.662Z,14.30
2022-07-25T23:39:34.018Z,10.30
2022-07-25T23:41:56.319Z,7.90
2022-07-25T23:44:18.547Z,16.97
2022-07-25T23:46:41.231Z,10.33
2022-07-25T23:49:03.040Z,12.33
2022-07-25T23:51:24.914Z,12.83
2022-07-25T23:53:47.227Z,10.60
2022-07-25T23:56:11.029Z,13.70
2022-07-25T23:58:33.203Z,11.13
